sensor_id;sensor_type;location;lat;lon;timestamp;P1;durP1;ratioP1;P2;durP2;ratioP2
15645;SDS011;7922;43.622;1.476;2023-07-29T00:00:22;5.40;;;4.90;;
15645;SDS011;7922;43.622;1.476;2023-07-29T00:02:47;5.03;;;4.53;;
15645;SDS011;7922;43.622;1.476;2023-07-29T00:05:13;4.93;;;4.53;;
15645;SDS011;7922;43.622;1.476;2023-07-29T00:07:38;5.93;;;5.43;;
15645;SDS011;7922;43.622;1.476;2023-07-29T00:10:03;5.00;;;4.60;;
15645;SDS011;7922;43.622;1.476;2023-07-29T00:12:29;5.43;;;5.03;;
15645;SDS011;7922;43.622;1.476;2023-07-29T00:14:54;5.77;;;5.17;;
15645;SDS011;7922;43.622;1.476;2023-07-29T00:17:20;5.83;;;5.33;;
15645;SDS011;7922;43.622;1.476;2023-07-29T00:19:45;5.90;;;5.40;;
15645;SDS011;7922;43.622;1.476;2023-07-29T00:22:11;5.60;;;5.10;;
15645;SDS011;7922;43.622;1.476;2023-07-29T00:24:36;5.67;;;5.10;;
15645;SDS011;7922;43.622;1.476;2023-07-29T00:27:01;5.57;;;5.07;;
15645;SDS011;7922;43.622;1.476;2023-07-29T00:29:27;5.97;;;5.47;;
15645;SDS011;7922;43.622;1.476;2023-07-29T00:31:52;5.90;;;5.47;;
15645;SDS011;7922;43.622;1.476;2023-07-29T00:34:17;5.63;;;5.13;;
15645;SDS011;7922;43.622;1.476;2023-07-29T00:36:42;6.20;;;5.60;;
15645;SDS011;7922;43.622;1.476;2023-07-29T00:39:08;6.03;;;5.53;;
15645;SDS011;7922;43.622;1.476;2023-07-29T00:41:33;5.70;;;5.20;;
15645;SDS011;7922;43.622;1.476;2023-07-29T00:43:58;6.43;;;5.63;;
15645;SDS011;7922;43.622;1.476;2023-07-29T00:46:24;5.80;;;5.20;;
15645;SDS011;7922;43.622;1.476;2023-07-29T00:48:49;6.63;;;6.03;;
15645;SDS011;7922;43.622;1.476;2023-07-29T00:51:15;5.73;;;5.33;;
15645;SDS011;7922;43.622;1.476;2023-07-29T00:53:40;6.17;;;5.60;;
15645;SDS011;7922;43.622;1.476;2023-07-29T00:56:05;6.27;;;5.67;;
15645;SDS011;7922;43.622;1.476;2023-07-29T00:58:31;6.00;;;5.47;;
15645;SDS011;7922;43.622;1.476;2023-07-29T01:00:56;6.30;;;5.70;;
15645;SDS011;7922;43.622;1.476;2023-07-29T01:03:22;5.47;;;5.07;;
15645;SDS011;7922;43.622;1.476;2023-07-29T01:05:55;6.10;;;5.50;;
15645;SDS011;7922;43.622;1.476;2023-07-29T01:08:53;5.93;;;5.33;;
15645;SDS011;7922;43.622;1.476;2023-07-29T01:11:40;5.70;;;5.20;;
15645;SDS011;7922;43.622;1.476;2023-07-29T01:16:57;6.60;;;6.00;;
15645;SDS011;7922;43.622;1.476;2023-07-29T01:22:05;6.40;;;5.80;;
15645;SDS011;7922;43.622;1.476;2023-07-29T01:24:32;5.93;;;5.43;;
15645;SDS011;7922;43.622;1.476;2023-07-29T01:26:57;7.27;;;6.53;;
15645;SDS011;7922;43.622;1.476;2023-07-29T01:29:23;6.90;;;6.20;;
15645;SDS011;7922;43.622;1.476;2023-07-29T01:31:48;6.73;;;6.13;;
15645;SDS011;7922;43.622;1.476;2023-07-29T01:34:32;5.77;;;5.37;;
15645;SDS011;7922;43.622;1.476;2023-07-29T01:37:34;6.27;;;5.67;;
15645;SDS011;7922;43.622;1.476;2023-07-29T01:40:02;7.07;;;6.47;;
15645;SDS011;7922;43.622;1.476;2023-07-29T01:42:28;6.27;;;5.77;;
15645;SDS011;7922;43.622;1.476;2023-07-29T01:44:54;6.50;;;5.90;;
15645;SDS011;7922;43.622;1.476;2023-07-29T01:47:20;6.03;;;5.53;;
15645;SDS011;7922;43.622;1.476;2023-07-29T01:49:45;6.47;;;5.87;;
15645;SDS011;7922;43.622;1.476;2023-07-29T01:52:11;5.80;;;5.30;;
15645;SDS011;7922;43.622;1.476;2023-07-29T01:54:36;6.47;;;5.87;;
15645;SDS011;7922;43.622;1.476;2023-07-29T01:57:01;6.33;;;5.83;;
15645;SDS011;7922;43.622;1.476;2023-07-29T01:59:27;6.20;;;5.70;;
15645;SDS011;7922;43.622;1.476;2023-07-29T02:01:52;6.27;;;5.77;;
15645;SDS011;7922;43.622;1.476;2023-07-29T02:04:17;6.37;;;5.77;;
15645;SDS011;7922;43.622;1.476;2023-07-29T02:06:42;5.77;;;5.30;;
15645;SDS011;7922;43.622;1.476;2023-07-29T02:09:08;6.30;;;5.80;;
15645;SDS011;7922;43.622;1.476;2023-07-29T02:11:33;6.37;;;5.87;;
15645;SDS011;7922;43.622;1.476;2023-07-29T02:14:00;5.93;;;5.33;;
15645;SDS011;7922;43.622;1.476;2023-07-29T02:16:25;6.10;;;5.53;;
15645;SDS011;7922;43.622;1.476;2023-07-29T02:18:50;6.17;;;5.63;;
15645;SDS011;7922;43.622;1.476;2023-07-29T02:21:16;6.40;;;5.63;;
15645;SDS011;7922;43.622;1.476;2023-07-29T02:23:41;6.80;;;6.10;;
15645;SDS011;7922;43.622;1.476;2023-07-29T02:26:06;6.77;;;6.17;;
15645;SDS011;7922;43.622;1.476;2023-07-29T02:28:32;6.30;;;5.80;;
15645;SDS011;7922;43.622;1.476;2023-07-29T02:31:16;6.13;;;5.63;;
15645;SDS011;7922;43.622;1.476;2023-07-29T02:33:45;6.00;;;5.50;;
15645;SDS011;7922;43.622;1.476;2023-07-29T02:36:11;6.10;;;5.60;;
15645;SDS011;7922;43.622;1.476;2023-07-29T02:38:38;6.40;;;5.80;;
15645;SDS011;7922;43.622;1.476;2023-07-29T02:41:03;6.03;;;5.53;;
15645;SDS011;7922;43.622;1.476;2023-07-29T02:43:28;6.47;;;5.97;;
15645;SDS011;7922;43.622;1.476;2023-07-29T02:45:54;5.80;;;5.30;;
15645;SDS011;7922;43.622;1.476;2023-07-29T02:48:19;6.30;;;5.80;;
15645;SDS011;7922;43.622;1.476;2023-07-29T02:50:44;6.53;;;5.93;;
15645;SDS011;7922;43.622;1.476;2023-07-29T02:53:09;5.97;;;5.47;;
15645;SDS011;7922;43.622;1.476;2023-07-29T02:55:35;5.87;;;5.37;;
15645;SDS011;7922;43.622;1.476;2023-07-29T02:58:00;6.40;;;5.90;;
15645;SDS011;7922;43.622;1.476;2023-07-29T03:00:25;6.17;;;5.57;;
15645;SDS011;7922;43.622;1.476;2023-07-29T03:02:50;6.43;;;5.83;;
15645;SDS011;7922;43.622;1.476;2023-07-29T03:05:16;5.90;;;5.40;;
15645;SDS011;7922;43.622;1.476;2023-07-29T03:07:41;6.50;;;5.90;;
15645;SDS011;7922;43.622;1.476;2023-07-29T03:10:07;6.33;;;5.63;;
15645;SDS011;7922;43.622;1.476;2023-07-29T03:12:32;7.07;;;5.50;;
15645;SDS011;7922;43.622;1.476;2023-07-29T03:14:57;6.70;;;6.10;;
15645;SDS011;7922;43.622;1.476;2023-07-29T03:17:23;6.17;;;5.63;;
15645;SDS011;7922;43.622;1.476;2023-07-29T03:19:48;6.50;;;6.00;;
15645;SDS011;7922;43.622;1.476;2023-07-29T03:22:13;6.10;;;5.50;;
15645;SDS011;7922;43.622;1.476;2023-07-29T03:24:38;6.27;;;5.70;;
15645;SDS011;7922;43.622;1.476;2023-07-29T03:27:04;5.90;;;5.40;;
15645;SDS011;7922;43.622;1.476;2023-07-29T03:29:29;6.40;;;5.90;;
15645;SDS011;7922;43.622;1.476;2023-07-29T03:31:55;6.60;;;6.00;;
15645;SDS011;7922;43.622;1.476;2023-07-29T03:34:20;6.10;;;5.60;;
15645;SDS011;7922;43.622;1.476;2023-07-29T03:36:45;6.10;;;5.60;;
15645;SDS011;7922;43.622;1.476;2023-07-29T03:39:11;6.60;;;5.93;;
15645;SDS011;7922;43.622;1.476;2023-07-29T03:41:36;6.20;;;5.70;;
15645;SDS011;7922;43.622;1.476;2023-07-29T03:44:02;6.07;;;5.47;;
15645;SDS011;7922;43.622;1.476;2023-07-29T03:46:27;6.47;;;5.87;;
15645;SDS011;7922;43.622;1.476;2023-07-29T03:48:52;7.07;;;5.23;;
15645;SDS011;7922;43.622;1.476;2023-07-29T03:51:18;6.17;;;5.57;;
15645;SDS011;7922;43.622;1.476;2023-07-29T03:53:43;6.20;;;5.60;;
15645;SDS011;7922;43.622;1.476;2023-07-29T03:56:08;5.87;;;5.27;;
15645;SDS011;7922;43.622;1.476;2023-07-29T03:58:33;6.20;;;5.70;;
15645;SDS011;7922;43.622;1.476;2023-07-29T04:00:59;5.83;;;5.33;;
15645;SDS011;7922;43.622;1.476;2023-07-29T04:03:24;6.57;;;5.27;;
15645;SDS011;7922;43.622;1.476;2023-07-29T04:05:49;6.07;;;5.47;;
15645;SDS011;7922;43.622;1.476;2023-07-29T04:08:14;6.13;;;5.53;;
15645;SDS011;7922;43.622;1.476;2023-07-29T04:10:40;6.93;;;6.23;;
15645;SDS011;7922;43.622;1.476;2023-07-29T04:13:05;6.47;;;5.80;;
15645;SDS011;7922;43.622;1.476;2023-07-29T04:15:30;6.87;;;6.37;;
15645;SDS011;7922;43.622;1.476;2023-07-29T04:17:56;7.33;;;6.73;;
15645;SDS011;7922;43.622;1.476;2023-07-29T04:20:21;6.70;;;6.07;;
15645;SDS011;7922;43.622;1.476;2023-07-29T04:22:46;6.70;;;6.17;;
15645;SDS011;7922;43.622;1.476;2023-07-29T04:25:12;6.53;;;5.93;;
15645;SDS011;7922;43.622;1.476;2023-07-29T04:27:37;6.90;;;6.20;;
15645;SDS011;7922;43.622;1.476;2023-07-29T04:30:02;7.17;;;6.47;;
15645;SDS011;7922;43.622;1.476;2023-07-29T04:32:28;6.93;;;6.33;;
15645;SDS011;7922;43.622;1.476;2023-07-29T04:34:53;7.10;;;6.40;;
15645;SDS011;7922;43.622;1.476;2023-07-29T04:37:18;6.97;;;6.37;;
15645;SDS011;7922;43.622;1.476;2023-07-29T04:39:43;7.50;;;6.90;;
15645;SDS011;7922;43.622;1.476;2023-07-29T04:42:09;7.27;;;6.67;;
15645;SDS011;7922;43.622;1.476;2023-07-29T04:44:34;7.40;;;6.70;;
15645;SDS011;7922;43.622;1.476;2023-07-29T04:46:59;7.33;;;6.73;;
15645;SDS011;7922;43.622;1.476;2023-07-29T04:49:25;6.83;;;6.10;;
15645;SDS011;7922;43.622;1.476;2023-07-29T04:51:50;6.90;;;6.40;;
15645;SDS011;7922;43.622;1.476;2023-07-29T04:54:15;6.80;;;6.10;;
15645;SDS011;7922;43.622;1.476;2023-07-29T04:56:40;7.83;;;6.27;;
15645;SDS011;7922;43.622;1.476;2023-07-29T04:59:06;6.57;;;6.07;;
15645;SDS011;7922;43.622;1.476;2023-07-29T05:01:31;8.83;;;6.67;;
15645;SDS011;7922;43.622;1.476;2023-07-29T05:03:56;7.10;;;6.60;;
15645;SDS011;7922;43.622;1.476;2023-07-29T05:06:21;7.03;;;6.43;;
15645;SDS011;7922;43.622;1.476;2023-07-29T05:08:47;7.20;;;6.50;;
15645;SDS011;7922;43.622;1.476;2023-07-29T05:11:12;7.67;;;6.23;;
15645;SDS011;7922;43.622;1.476;2023-07-29T05:13:37;6.97;;;6.37;;
15645;SDS011;7922;43.622;1.476;2023-07-29T05:16:02;8.17;;;7.47;;
15645;SDS011;7922;43.622;1.476;2023-07-29T05:18:28;7.30;;;6.60;;
15645;SDS011;7922;43.622;1.476;2023-07-29T05:20:53;8.33;;;7.47;;
15645;SDS011;7922;43.622;1.476;2023-07-29T05:23:18;7.10;;;6.50;;
15645;SDS011;7922;43.622;1.476;2023-07-29T05:25:44;8.07;;;7.33;;
15645;SDS011;7922;43.622;1.476;2023-07-29T05:28:09;6.97;;;6.37;;
15645;SDS011;7922;43.622;1.476;2023-07-29T05:30:34;7.50;;;6.80;;
15645;SDS011;7922;43.622;1.476;2023-07-29T05:33:00;7.57;;;6.87;;
15645;SDS011;7922;43.622;1.476;2023-07-29T05:35:25;7.80;;;7.03;;
15645;SDS011;7922;43.622;1.476;2023-07-29T05:37:51;7.13;;;6.53;;
15645;SDS011;7922;43.622;1.476;2023-07-29T05:40:16;6.80;;;6.20;;
15645;SDS011;7922;43.622;1.476;2023-07-29T05:42:41;7.30;;;6.60;;
15645;SDS011;7922;43.622;1.476;2023-07-29T05:45:07;6.93;;;6.30;;
15645;SDS011;7922;43.622;1.476;2023-07-29T05:47:33;6.90;;;6.30;;
15645;SDS011;7922;43.622;1.476;2023-07-29T05:49:58;8.67;;;6.50;;
15645;SDS011;7922;43.622;1.476;2023-07-29T05:52:23;7.13;;;6.63;;
15645;SDS011;7922;43.622;1.476;2023-07-29T05:54:49;7.30;;;6.60;;
15645;SDS011;7922;43.622;1.476;2023-07-29T05:57:14;7.10;;;6.30;;
15645;SDS011;7922;43.622;1.476;2023-07-29T05:59:39;7.30;;;6.37;;
15645;SDS011;7922;43.622;1.476;2023-07-29T06:02:04;7.93;;;7.20;;
15645;SDS011;7922;43.622;1.476;2023-07-29T06:04:30;8.57;;;7.30;;
15645;SDS011;7922;43.622;1.476;2023-07-29T06:06:56;6.93;;;6.33;;
15645;SDS011;7922;43.622;1.476;2023-07-29T06:09:21;7.40;;;6.70;;
15645;SDS011;7922;43.622;1.476;2023-07-29T06:11:47;7.90;;;7.30;;
15645;SDS011;7922;43.622;1.476;2023-07-29T06:14:12;7.50;;;6.90;;
15645;SDS011;7922;43.622;1.476;2023-07-29T06:16:38;7.60;;;6.90;;
15645;SDS011;7922;43.622;1.476;2023-07-29T06:19:03;7.80;;;7.10;;
15645;SDS011;7922;43.622;1.476;2023-07-29T06:21:28;7.53;;;6.63;;
15645;SDS011;7922;43.622;1.476;2023-07-29T06:23:54;7.57;;;6.90;;
15645;SDS011;7922;43.622;1.476;2023-07-29T06:26:19;6.90;;;6.30;;
15645;SDS011;7922;43.622;1.476;2023-07-29T06:28:44;9.33;;;6.60;;
15645;SDS011;7922;43.622;1.476;2023-07-29T06:31:09;7.17;;;6.47;;
15645;SDS011;7922;43.622;1.476;2023-07-29T06:33:35;7.03;;;6.33;;
15645;SDS011;7922;43.622;1.476;2023-07-29T06:36:00;7.47;;;6.67;;
15645;SDS011;7922;43.622;1.476;2023-07-29T06:38:25;6.90;;;6.33;;
15645;SDS011;7922;43.622;1.476;2023-07-29T06:40:51;6.93;;;6.40;;
15645;SDS011;7922;43.622;1.476;2023-07-29T06:43:16;7.90;;;7.20;;
15645;SDS011;7922;43.622;1.476;2023-07-29T06:45:42;7.37;;;6.50;;
15645;SDS011;7922;43.622;1.476;2023-07-29T06:48:07;7.30;;;6.63;;
15645;SDS011;7922;43.622;1.476;2023-07-29T06:50:32;7.13;;;6.10;;
15645;SDS011;7922;43.622;1.476;2023-07-29T06:52:58;8.07;;;6.30;;
15645;SDS011;7922;43.622;1.476;2023-07-29T06:55:23;7.60;;;6.90;;
15645;SDS011;7922;43.622;1.476;2023-07-29T06:57:48;7.37;;;6.70;;
15645;SDS011;7922;43.622;1.476;2023-07-29T07:00:14;7.27;;;6.57;;
15645;SDS011;7922;43.622;1.476;2023-07-29T07:02:39;7.20;;;6.57;;
15645;SDS011;7922;43.622;1.476;2023-07-29T07:05:04;6.73;;;6.23;;
15645;SDS011;7922;43.622;1.476;2023-07-29T07:07:30;6.60;;;6.10;;
15645;SDS011;7922;43.622;1.476;2023-07-29T07:09:55;7.40;;;6.00;;
15645;SDS011;7922;43.622;1.476;2023-07-29T07:12:20;7.60;;;6.90;;
15645;SDS011;7922;43.622;1.476;2023-07-29T07:14:46;6.27;;;5.77;;
15645;SDS011;7922;43.622;1.476;2023-07-29T07:17:11;7.63;;;6.93;;
15645;SDS011;7922;43.622;1.476;2023-07-29T07:19:36;7.47;;;6.87;;
15645;SDS011;7922;43.622;1.476;2023-07-29T07:22:02;7.30;;;6.70;;
15645;SDS011;7922;43.622;1.476;2023-07-29T07:24:27;6.90;;;6.30;;
15645;SDS011;7922;43.622;1.476;2023-07-29T07:26:52;6.67;;;6.07;;
15645;SDS011;7922;43.622;1.476;2023-07-29T07:29:18;6.73;;;6.20;;
15645;SDS011;7922;43.622;1.476;2023-07-29T07:31:46;6.50;;;5.90;;
15645;SDS011;7922;43.622;1.476;2023-07-29T07:34:15;6.67;;;6.03;;
15645;SDS011;7922;43.622;1.476;2023-07-29T07:36:40;6.80;;;6.20;;
15645;SDS011;7922;43.622;1.476;2023-07-29T07:39:06;6.10;;;5.50;;
15645;SDS011;7922;43.622;1.476;2023-07-29T07:41:31;6.67;;;6.07;;
15645;SDS011;7922;43.622;1.476;2023-07-29T07:43:56;5.73;;;5.23;;
15645;SDS011;7922;43.622;1.476;2023-07-29T07:46:21;6.27;;;5.77;;
15645;SDS011;7922;43.622;1.476;2023-07-29T07:48:47;5.80;;;5.30;;
15645;SDS011;7922;43.622;1.476;2023-07-29T07:51:12;5.33;;;4.80;;
15645;SDS011;7922;43.622;1.476;2023-07-29T07:53:38;5.20;;;4.70;;
15645;SDS011;7922;43.622;1.476;2023-07-29T07:56:03;5.47;;;4.57;;
15645;SDS011;7922;43.622;1.476;2023-07-29T07:58:28;5.10;;;4.70;;
15645;SDS011;7922;43.622;1.476;2023-07-29T08:01:00;4.73;;;4.23;;
15645;SDS011;7922;43.622;1.476;2023-07-29T08:03:29;5.10;;;4.60;;
15645;SDS011;7922;43.622;1.476;2023-07-29T08:05:54;4.57;;;4.13;;
15645;SDS011;7922;43.622;1.476;2023-07-29T08:08:19;6.30;;;4.50;;
15645;SDS011;7922;43.622;1.476;2023-07-29T08:10:44;4.77;;;4.37;;
15645;SDS011;7922;43.622;1.476;2023-07-29T08:13:10;5.60;;;5.17;;
15645;SDS011;7922;43.622;1.476;2023-07-29T08:15:35;4.60;;;4.13;;
15645;SDS011;7922;43.622;1.476;2023-07-29T08:18:00;5.87;;;4.33;;
15645;SDS011;7922;43.622;1.476;2023-07-29T08:20:25;5.43;;;4.93;;
15645;SDS011;7922;43.622;1.476;2023-07-29T08:22:51;6.47;;;4.60;;
15645;SDS011;7922;43.622;1.476;2023-07-29T08:25:16;5.07;;;4.67;;
15645;SDS011;7922;43.622;1.476;2023-07-29T08:27:41;5.20;;;4.70;;
15645;SDS011;7922;43.622;1.476;2023-07-29T08:30:07;5.43;;;4.93;;
15645;SDS011;7922;43.622;1.476;2023-07-29T08:32:32;6.45;;;4.95;;
15645;SDS011;7922;43.622;1.476;2023-07-29T08:34:58;5.20;;;4.70;;
15645;SDS011;7922;43.622;1.476;2023-07-29T08:37:23;5.72;;;5.18;;
15645;SDS011;7922;43.622;1.476;2023-07-29T08:39:48;5.25;;;4.85;;
15645;SDS011;7922;43.622;1.476;2023-07-29T08:42:13;5.97;;;5.47;;
15645;SDS011;7922;43.622;1.476;2023-07-29T08:44:43;5.18;;;4.70;;
15645;SDS011;7922;43.622;1.476;2023-07-29T08:47:10;5.43;;;4.60;;
15645;SDS011;7922;43.622;1.476;2023-07-29T08:49:36;5.10;;;4.60;;
15645;SDS011;7922;43.622;1.476;2023-07-29T08:52:02;4.50;;;4.10;;
15645;SDS011;7922;43.622;1.476;2023-07-29T08:54:28;4.53;;;4.13;;
15645;SDS011;7922;43.622;1.476;2023-07-29T08:56:54;4.68;;;4.20;;
15645;SDS011;7922;43.622;1.476;2023-07-29T08:59:19;4.82;;;4.53;;
15645;SDS011;7922;43.622;1.476;2023-07-29T09:01:45;4.85;;;4.38;;
15645;SDS011;7922;43.622;1.476;2023-07-29T09:04:12;4.85;;;4.45;;
15645;SDS011;7922;43.622;1.476;2023-07-29T09:06:37;5.03;;;4.40;;
15645;SDS011;7922;43.622;1.476;2023-07-29T09:09:04;5.90;;;4.55;;
15645;SDS011;7922;43.622;1.476;2023-07-29T09:11:32;4.85;;;4.43;;
15645;SDS011;7922;43.622;1.476;2023-07-29T09:13:58;4.95;;;4.55;;
15645;SDS011;7922;43.622;1.476;2023-07-29T09:16:23;5.45;;;4.95;;
15645;SDS011;7922;43.622;1.476;2023-07-29T09:18:49;5.13;;;4.32;;
15645;SDS011;7922;43.622;1.476;2023-07-29T09:21:23;5.13;;;4.70;;
15645;SDS011;7922;43.622;1.476;2023-07-29T09:23:49;5.40;;;4.68;;
15645;SDS011;7922;43.622;1.476;2023-07-29T09:26:21;4.88;;;4.47;;
15645;SDS011;7922;43.622;1.476;2023-07-29T09:28:50;4.57;;;4.10;;
15645;SDS011;7922;43.622;1.476;2023-07-29T09:31:22;5.22;;;4.82;;
15645;SDS011;7922;43.622;1.476;2023-07-29T09:33:49;4.38;;;4.07;;
15645;SDS011;7922;43.622;1.476;2023-07-29T09:36:14;4.63;;;4.07;;
15645;SDS011;7922;43.622;1.476;2023-07-29T09:38:40;4.80;;;4.40;;
15645;SDS011;7922;43.622;1.476;2023-07-29T09:41:05;5.15;;;3.90;;
15645;SDS011;7922;43.622;1.476;2023-07-29T09:43:32;4.45;;;4.03;;
15645;SDS011;7922;43.622;1.476;2023-07-29T09:46:04;4.68;;;4.07;;
15645;SDS011;7922;43.622;1.476;2023-07-29T09:48:36;4.47;;;4.07;;
15645;SDS011;7922;43.622;1.476;2023-07-29T09:51:10;4.28;;;3.88;;
15645;SDS011;7922;43.622;1.476;2023-07-29T09:53:43;4.22;;;3.75;;
15645;SDS011;7922;43.622;1.476;2023-07-29T09:56:10;4.18;;;3.78;;
15645;SDS011;7922;43.622;1.476;2023-07-29T09:58:35;4.35;;;4.00;;
15645;SDS011;7922;43.622;1.476;2023-07-29T10:01:01;5.00;;;3.95;;
15645;SDS011;7922;43.622;1.476;2023-07-29T10:03:26;4.50;;;4.10;;
15645;SDS011;7922;43.622;1.476;2023-07-29T10:05:53;4.80;;;3.90;;
15645;SDS011;7922;43.622;1.476;2023-07-29T10:08:18;4.22;;;3.92;;
15645;SDS011;7922;43.622;1.476;2023-07-29T10:10:45;4.35;;;3.88;;
15645;SDS011;7922;43.622;1.476;2023-07-29T10:13:10;4.07;;;3.67;;
15645;SDS011;7922;43.622;1.476;2023-07-29T10:15:37;3.72;;;3.42;;
15645;SDS011;7922;43.622;1.476;2023-07-29T10:18:03;4.35;;;3.95;;
15645;SDS011;7922;43.622;1.476;2023-07-29T10:20:32;4.80;;;4.00;;
15645;SDS011;7922;43.622;1.476;2023-07-29T10:23:00;5.40;;;4.00;;
15645;SDS011;7922;43.622;1.476;2023-07-29T10:25:38;4.93;;;3.70;;
15645;SDS011;7922;43.622;1.476;2023-07-29T10:28:07;4.00;;;3.70;;
15645;SDS011;7922;43.622;1.476;2023-07-29T10:30:33;4.13;;;3.53;;
15645;SDS011;7922;43.622;1.476;2023-07-29T10:33:01;4.20;;;3.80;;
15645;SDS011;7922;43.622;1.476;2023-07-29T10:35:28;3.95;;;3.65;;
15645;SDS011;7922;43.622;1.476;2023-07-29T10:37:53;4.05;;;3.75;;
15645;SDS011;7922;43.622;1.476;2023-07-29T10:40:20;4.20;;;3.90;;
15645;SDS011;7922;43.622;1.476;2023-07-29T10:43:01;4.35;;;4.05;;
15645;SDS011;7922;43.622;1.476;2023-07-29T10:45:35;3.70;;;3.40;;
15645;SDS011;7922;43.622;1.476;2023-07-29T10:48:12;4.22;;;3.90;;
15645;SDS011;7922;43.622;1.476;2023-07-29T10:50:38;3.72;;;3.40;;
15645;SDS011;7922;43.622;1.476;2023-07-29T10:53:04;4.22;;;3.92;;
15645;SDS011;7922;43.622;1.476;2023-07-29T10:55:31;4.20;;;3.80;;
15645;SDS011;7922;43.622;1.476;2023-07-29T10:58:31;5.05;;;3.83;;
15645;SDS011;7922;43.622;1.476;2023-07-29T11:00:49;4.22;;;3.92;;
15645;SDS011;7922;43.622;1.476;2023-07-29T11:03:14;5.55;;;4.35;;
15645;SDS011;7922;43.622;1.476;2023-07-29T11:05:47;4.25;;;3.95;;
15645;SDS011;7922;43.622;1.476;2023-07-29T11:08:37;4.13;;;3.72;;
15645;SDS011;7922;43.622;1.476;2023-07-29T11:11:05;7.07;;;4.20;;
15645;SDS011;7922;43.622;1.476;2023-07-29T11:13:33;4.18;;;3.88;;
15645;SDS011;7922;43.622;1.476;2023-07-29T11:16:00;4.47;;;4.07;;
15645;SDS011;7922;43.622;1.476;2023-07-29T11:18:26;3.90;;;3.40;;
15645;SDS011;7922;43.622;1.476;2023-07-29T11:20:56;4.15;;;3.72;;
15645;SDS011;7922;43.622;1.476;2023-07-29T11:23:32;4.00;;;3.70;;
15645;SDS011;7922;43.622;1.476;2023-07-29T11:26:00;8.25;;;4.30;;
15645;SDS011;7922;43.622;1.476;2023-07-29T11:28:26;4.78;;;4.20;;
15645;SDS011;7922;43.622;1.476;2023-07-29T11:30:51;4.95;;;4.30;;
15645;SDS011;7922;43.622;1.476;2023-07-29T11:33:19;5.13;;;4.40;;
15645;SDS011;7922;43.622;1.476;2023-07-29T11:35:45;4.53;;;4.13;;
15645;SDS011;7922;43.622;1.476;2023-07-29T11:38:14;4.60;;;4.18;;
15645;SDS011;7922;43.622;1.476;2023-07-29T11:40:40;4.70;;;4.30;;
15645;SDS011;7922;43.622;1.476;2023-07-29T11:43:06;4.50;;;4.10;;
15645;SDS011;7922;43.622;1.476;2023-07-29T11:45:31;4.32;;;3.92;;
15645;SDS011;7922;43.622;1.476;2023-07-29T11:47:58;4.13;;;3.72;;
15645;SDS011;7922;43.622;1.476;2023-07-29T11:50:23;4.25;;;3.85;;
15645;SDS011;7922;43.622;1.476;2023-07-29T11:52:48;5.10;;;4.50;;
15645;SDS011;7922;43.622;1.476;2023-07-29T11:55:14;4.20;;;3.78;;
15645;SDS011;7922;43.622;1.476;2023-07-29T11:57:40;4.90;;;4.03;;
15645;SDS011;7922;43.622;1.476;2023-07-29T12:00:08;5.18;;;4.22;;
15645;SDS011;7922;43.622;1.476;2023-07-29T12:02:35;4.30;;;3.92;;
15645;SDS011;7922;43.622;1.476;2023-07-29T12:05:03;4.35;;;3.95;;
15645;SDS011;7922;43.622;1.476;2023-07-29T12:07:30;5.20;;;4.70;;
15645;SDS011;7922;43.622;1.476;2023-07-29T12:09:56;8.18;;;4.80;;
15645;SDS011;7922;43.622;1.476;2023-07-29T12:12:24;5.90;;;4.20;;
15645;SDS011;7922;43.622;1.476;2023-07-29T12:14:49;4.97;;;4.60;;
15645;SDS011;7922;43.622;1.476;2023-07-29T12:17:14;4.38;;;4.07;;
15645;SDS011;7922;43.622;1.476;2023-07-29T12:19:40;4.70;;;4.30;;
15645;SDS011;7922;43.622;1.476;2023-07-29T12:22:07;4.40;;;4.03;;
15645;SDS011;7922;43.622;1.476;2023-07-29T12:24:35;4.18;;;3.88;;
15645;SDS011;7922;43.622;1.476;2023-07-29T12:27:02;4.63;;;4.10;;
15645;SDS011;7922;43.622;1.476;2023-07-29T12:29:28;5.30;;;3.92;;
15645;SDS011;7922;43.622;1.476;2023-07-29T12:31:57;4.40;;;4.00;;
15645;SDS011;7922;43.622;1.476;2023-07-29T12:34:25;4.47;;;4.07;;
15645;SDS011;7922;43.622;1.476;2023-07-29T12:36:51;4.90;;;4.50;;
15645;SDS011;7922;43.622;1.476;2023-07-29T12:39:17;4.90;;;4.25;;
15645;SDS011;7922;43.622;1.476;2023-07-29T12:41:48;4.38;;;4.05;;
15645;SDS011;7922;43.622;1.476;2023-07-29T12:44:14;4.50;;;3.97;;
15645;SDS011;7922;43.622;1.476;2023-07-29T12:46:39;4.90;;;4.35;;
15645;SDS011;7922;43.622;1.476;2023-07-29T12:49:05;4.47;;;4.05;;
15645;SDS011;7922;43.622;1.476;2023-07-29T12:51:30;4.47;;;3.83;;
15645;SDS011;7922;43.622;1.476;2023-07-29T12:53:56;4.40;;;4.10;;
15645;SDS011;7922;43.622;1.476;2023-07-29T12:56:21;4.65;;;4.00;;
15645;SDS011;7922;43.622;1.476;2023-07-29T12:58:46;5.57;;;4.13;;
15645;SDS011;7922;43.622;1.476;2023-07-29T13:01:11;4.57;;;4.18;;
15645;SDS011;7922;43.622;1.476;2023-07-29T13:03:37;4.90;;;4.43;;
15645;SDS011;7922;43.622;1.476;2023-07-29T13:06:02;4.20;;;3.90;;
15645;SDS011;7922;43.622;1.476;2023-07-29T13:08:29;5.00;;;3.95;;
15645;SDS011;7922;43.622;1.476;2023-07-29T13:10:55;4.85;;;4.00;;
15645;SDS011;7922;43.622;1.476;2023-07-29T13:13:20;3.90;;;3.60;;
15645;SDS011;7922;43.622;1.476;2023-07-29T13:15:45;4.32;;;3.92;;
15645;SDS011;7922;43.622;1.476;2023-07-29T13:18:11;5.93;;;4.10;;
15645;SDS011;7922;43.622;1.476;2023-07-29T13:20:36;4.28;;;3.58;;
15645;SDS011;7922;43.622;1.476;2023-07-29T13:23:01;4.55;;;3.97;;
15645;SDS011;7922;43.622;1.476;2023-07-29T13:25:26;4.90;;;4.40;;
15645;SDS011;7922;43.622;1.476;2023-07-29T13:27:52;3.85;;;3.55;;
15645;SDS011;7922;43.622;1.476;2023-07-29T13:30:17;4.47;;;3.90;;
15645;SDS011;7922;43.622;1.476;2023-07-29T13:32:42;4.85;;;4.25;;
15645;SDS011;7922;43.622;1.476;2023-07-29T13:35:07;5.28;;;4.35;;
15645;SDS011;7922;43.622;1.476;2023-07-29T13:37:33;4.50;;;4.05;;
15645;SDS011;7922;43.622;1.476;2023-07-29T13:39:58;5.43;;;4.20;;
15645;SDS011;7922;43.622;1.476;2023-07-29T13:42:23;4.60;;;3.90;;
15645;SDS011;7922;43.622;1.476;2023-07-29T13:44:49;4.40;;;4.00;;
15645;SDS011;7922;43.622;1.476;2023-07-29T13:47:14;5.25;;;4.20;;
15645;SDS011;7922;43.622;1.476;2023-07-29T13:49:39;4.03;;;3.63;;
15645;SDS011;7922;43.622;1.476;2023-07-29T13:52:04;4.50;;;4.10;;
15645;SDS011;7922;43.622;1.476;2023-07-29T13:54:30;3.88;;;3.58;;
15645;SDS011;7922;43.622;1.476;2023-07-29T13:56:55;3.63;;;3.33;;
15645;SDS011;7922;43.622;1.476;2023-07-29T13:59:20;4.47;;;3.60;;
15645;SDS011;7922;43.622;1.476;2023-07-29T14:01:46;4.28;;;3.83;;
15645;SDS011;7922;43.622;1.476;2023-07-29T14:04:11;4.32;;;3.92;;
15645;SDS011;7922;43.622;1.476;2023-07-29T14:06:36;4.05;;;3.60;;
15645;SDS011;7922;43.622;1.476;2023-07-29T14:09:01;4.00;;;3.70;;
15645;SDS011;7922;43.622;1.476;2023-07-29T14:11:27;4.22;;;3.55;;
15645;SDS011;7922;43.622;1.476;2023-07-29T14:13:52;3.92;;;3.53;;
15645;SDS011;7922;43.622;1.476;2023-07-29T14:16:17;4.25;;;3.80;;
15645;SDS011;7922;43.622;1.476;2023-07-29T14:18:42;4.15;;;3.83;;
15645;SDS011;7922;43.622;1.476;2023-07-29T14:21:08;5.18;;;4.05;;
15645;SDS011;7922;43.622;1.476;2023-07-29T14:23:33;4.25;;;3.88;;
15645;SDS011;7922;43.622;1.476;2023-07-29T14:25:58;4.57;;;4.10;;
15645;SDS011;7922;43.622;1.476;2023-07-29T14:28:24;5.13;;;4.00;;
15645;SDS011;7922;43.622;1.476;2023-07-29T14:30:49;4.13;;;3.70;;
15645;SDS011;7922;43.622;1.476;2023-07-29T14:33:14;4.32;;;3.92;;
15645;SDS011;7922;43.622;1.476;2023-07-29T14:35:39;4.65;;;4.22;;
15645;SDS011;7922;43.622;1.476;2023-07-29T14:38:05;4.25;;;3.85;;
15645;SDS011;7922;43.622;1.476;2023-07-29T14:40:30;4.28;;;3.97;;
15645;SDS011;7922;43.622;1.476;2023-07-29T14:42:55;4.20;;;3.80;;
15645;SDS011;7922;43.622;1.476;2023-07-29T14:45:20;4.10;;;3.70;;
15645;SDS011;7922;43.622;1.476;2023-07-29T14:47:46;5.60;;;4.38;;
15645;SDS011;7922;43.622;1.476;2023-07-29T14:50:11;4.40;;;4.00;;
15645;SDS011;7922;43.622;1.476;2023-07-29T14:52:36;4.70;;;4.30;;
15645;SDS011;7922;43.622;1.476;2023-07-29T14:55:02;4.55;;;3.75;;
15645;SDS011;7922;43.622;1.476;2023-07-29T14:57:27;4.72;;;4.30;;
15645;SDS011;7922;43.622;1.476;2023-07-29T14:59:52;4.85;;;4.25;;